Time;durP1;ratioP1;P1;durP2;ratioP2;P2;SDS_P1;SDS_P2;PMS_P1;PMS_P2;Temp;Humidity;BMP_temperature;BMP_pressure;BME280_temperature;BME280_humidity;BME280_pressure;Samples;Min_cycle;Max_cycle;Signal;HPM_P1;HPM_P2
2021/12/06 04:51:24;;;;;;;10.05;6.57;;;;;;;6.09;77.75;99438.66;5606257;31;76711;-57
2021/12/06 04:54:32;;;;;;;7.57;6.35;;;;;;;5.83;75.85;99440.59;5583755;32;33395;-58
2021/12/06 04:57:39;;;;;;;9.02;7.18;;;;;;;6.01;84.80;99448.00;5583710;31;33400;-58
2021/12/06 05:00:49;;;;;;;9.10;6.70;;;;;;;6.29;89.10;99453.72;5583457;31;34047;-58
2021/12/06 05:03:52;;;;;;;7.87;6.37;;;;;;;6.59;84.86;99452.78;5583584;31;33740;-58
2021/12/06 05:07:10;;;;;;;7.53;5.55;;;;;;;6.34;74.34;99449.19;5583156;31;33245;-58
2021/12/06 05:10:14;;;;;;;7.00;4.97;;;;;;;6.41;75.05;99464.06;5583389;32;33618;-57
2021/12/06 05:13:17;;;;;;;6.18;4.87;;;;;;;6.24;77.14;99472.38;5583601;31;33573;-57
2021/12/06 05:16:21;;;;;;;8.48;5.62;;;;;;;6.23;74.50;99468.94;5579806;31;33642;-58
2021/12/06 05:19:24;;;;;;;6.07;4.68;;;;;;;6.25;76.80;99474.75;5564013;32;34284;-58
2021/12/06 05:22:28;;;;;;;5.65;4.57;;;;;;;6.73;78.29;99479.59;5563633;32;33578;-58
2021/12/06 05:25:31;;;;;;;6.18;4.85;;;;;;;6.49;75.89;99482.91;5563858;32;33448;-58
2021/12/06 05:28:40;;;;;;;5.72;4.30;;;;;;;6.74;73.48;99497.16;5563733;32;33715;-58
2021/12/06 05:31:42;;;;;;;6.15;4.60;;;;;;;6.41;72.44;99491.47;5563720;32;34101;-58
2021/12/06 05:34:46;;;;;;;6.00;4.70;;;;;;;6.39;76.88;99496.28;5563286;32;33313;-58
2021/12/06 05:37:53;;;;;;;5.53;4.45;;;;;;;6.47;76.26;99498.34;5563467;32;33672;-58
2021/12/06 05:40:57;;;;;;;5.07;4.47;;;;;;;6.49;74.22;99500.72;5563593;32;33641;-57
2021/12/06 05:44:00;;;;;;;6.30;4.47;;;;;;;6.39;74.47;99490.97;5563607;32;33816;-58
2021/12/06 05:47:03;;;;;;;6.25;4.28;;;;;;;6.37;71.96;99485.09;5563684;32;33664;-58
2021/12/06 05:50:06;;;;;;;4.65;3.80;;;;;;;6.73;72.91;99495.56;5563250;32;33660;-58
2021/12/06 05:53:09;;;;;;;5.28;4.43;;;;;;;6.63;73.44;99503.63;5581925;32;34185;-58
2021/12/06 05:56:11;;;;;;;6.18;4.85;;;;;;;6.50;73.05;99489.81;5582647;31;33688;-58
2021/12/06 05:59:14;;;;;;;5.32;4.25;;;;;;;6.52;79.32;99498.34;5582758;31;33581;-58
2021/12/06 06:02:17;;;;;;;5.07;4.10;;;;;;;6.55;72.71;99497.78;5571151;32;33467;-58
2021/12/06 06:05:20;;;;;;;7.50;4.65;;;;;;;6.53;78.23;99499.94;5569833;32;33690;-58
2021/12/06 06:08:23;;;;;;;7.45;4.75;;;;;;;6.77;79.47;99497.37;5569067;32;33750;-58
2021/12/06 06:11:27;;;;;;;6.57;5.37;;;;;;;6.91;81.84;99502.09;5569594;32;33241;-58
2021/12/06 06:14:30;;;;;;;5.85;5.20;;;;;;;6.80;83.26;99510.16;5569094;32;33596;-58
2021/12/06 06:17:39;;;;;;;5.87;4.78;;;;;;;6.58;72.74;99518.53;5568769;31;33648;-58
2021/12/06 06:20:51;;;;;;;5.93;5.20;;;;;;;6.39;72.76;99514.09;5569200;32;33715;-58
2021/12/06 06:23:56;;;;;;;6.65;5.20;;;;;;;6.34;79.16;99522.91;5569729;32;33634;-58
2021/12/06 06:26:58;;;;;;;8.23;6.00;;;;;;;6.35;74.23;99530.63;5569841;32;33541;-57
2021/12/06 06:30:00;;;;;;;7.82;5.22;;;;;;;6.23;71.81;99532.03;5568919;32;33903;-58
2021/12/06 06:33:04;;;;;;;7.10;5.45;;;;;;;6.23;73.01;99526.69;5568783;32;33282;-57
2021/12/06 06:36:07;;;;;;;8.68;6.70;;;;;;;6.17;73.36;99522.47;5569323;32;33806;-58
2021/12/06 06:39:10;;;;;;;12.45;7.43;;;;;;;6.24;72.86;99530.94;5566437;32;33840;-58
2021/12/06 06:42:12;;;;;;;13.98;7.57;;;;;;;6.04;75.54;99539.78;5569365;32;34810;-58
2021/12/06 06:45:18;;;;;;;10.80;7.85;;;;;;;6.00;75.08;99547.50;5568582;32;33649;-58
2021/12/06 06:48:21;;;;;;;12.98;8.57;;;;;;;6.00;75.29;99558.16;5569160;32;33628;-58
2021/12/06 06:51:27;;;;;;;11.23;8.60;;;;;;;5.95;77.61;99558.16;5569268;32;33594;-58
2021/12/06 06:54:30;;;;;;;10.52;8.23;;;;;;;5.95;74.53;99560.03;5569015;32;33853;-58
2021/12/06 06:57:33;;;;;;;12.98;9.50;;;;;;;6.03;73.97;99572.78;5567800;32;34304;-58
2021/12/06 07:00:40;;;;;;;14.75;9.60;;;;;;;5.89;73.93;99578.62;5569206;32;34265;-58
2021/12/06 07:03:42;;;;;;;;;;;;;;;5.87;74.60;99587.94;5569521;32;33799;-58
2021/12/06 07:06:45;;;;;;;11.57;9.68;;;;;;;5.96;80.96;99590.88;5569225;32;33472;-57
2021/12/06 07:09:47;;;;;;;14.80;10.75;;;;;;;6.01;74.54;99591.66;5568938;32;34224;-58
2021/12/06 07:12:52;;;;;;;13.10;9.88;;;;;;;5.93;74.09;99591.41;5567963;32;33764;-58
2021/12/06 07:15:54;;;;;;;13.15;10.30;;;;;;;5.91;79.06;99598.84;5549664;32;34364;-58
2021/12/06 07:18:57;;;;;;;14.90;10.30;;;;;;;5.94;79.93;99601.78;5549343;32;33758;-57
2021/12/06 07:22:20;;;;;;;14.77;10.43;;;;;;;5.81;76.11;99607.63;5552937;32;33828;-57
2021/12/06 07:25:23;;;;;;;14.48;10.68;;;;;;;5.74;75.92;99609.78;5568270;32;33736;-58
2021/12/06 07:28:26;;;;;;;13.43;10.55;;;;;;;5.86;75.28;99615.59;5569103;32;34406;-58
2021/12/06 07:31:29;;;;;;;16.05;11.07;;;;;;;5.80;76.80;99616.69;5568559;32;33609;-58
2021/12/06 07:34:32;;;;;;;14.60;11.32;;;;;;;5.96;77.19;99620.13;5568870;32;34173;-58
2021/12/06 07:37:35;;;;;;;20.88;11.75;;;;;;;5.87;83.07;99614.53;5569140;32;34275;-58
2021/12/06 07:40:37;;;;;;;14.00;11.12;;;;;;;5.82;77.29;99617.19;5568378;32;34733;-58
2021/12/06 07:43:40;;;;;;;15.13;11.18;;;;;;;5.97;78.70;99611.91;5568550;32;33669;-58
2021/12/06 07:46:42;;;;;;;14.35;11.10;;;;;;;5.92;79.56;99613.72;5568520;32;33604;-58
2021/12/06 07:49:48;;;;;;;15.18;10.73;;;;;;;5.95;76.20;99616.69;5568086;32;34334;-57
2021/12/06 07:53:00;;;;;;;14.57;10.95;;;;;;;6.18;75.96;99619.84;5568582;32;34317;-58
2021/12/06 07:56:04;;;;;;;14.25;10.60;;;;;;;6.15;76.65;99626.50;5568296;32;34378;-58
2021/12/06 07:59:06;;;;;;;16.92;11.30;;;;;;;6.04;75.18;99623.06;5568652;32;34141;-58
2021/12/06 08:02:09;;;;;;;14.70;10.90;;;;;;;6.16;74.72;99629.94;5568391;32;33945;-57
2021/12/06 08:05:31;;;;;;;17.23;11.98;;;;;;;6.31;73.98;99625.41;5568124;32;34400;-58
2021/12/06 08:08:34;;;;;;;19.37;12.20;;;;;;;6.10;74.63;99629.19;5567685;32;33557;-58
2021/12/06 08:11:36;;;;;;;18.83;11.70;;;;;;;6.12;74.75;99625.19;5566688;32;34219;-57
2021/12/06 08:14:39;;;;;;;19.62;11.20;;;;;;;6.14;74.95;99626.78;5566850;32;34113;-57
2021/12/06 08:17:42;;;;;;;15.45;11.35;;;;;;;6.17;76.01;99635.03;5568036;32;33824;-58
2021/12/06 08:20:44;;;;;;;19.85;11.43;;;;;;;6.25;75.36;99625.69;5566028;32;33360;-58
2021/12/06 08:23:49;;;;;;;17.48;12.18;;;;;;;6.51;76.09;99632.53;5562320;32;33687;-57
2021/12/06 08:26:51;;;;;;;11.07;8.57;;;;;;;6.52;74.30;99642.13;5563045;32;33301;-58
2021/12/06 08:29:53;;;;;;;11.40;8.98;;;;;;;6.42;72.72;99644.81;5567430;32;33502;-58
2021/12/06 08:33:01;;;;;;;11.25;7.60;;;;;;;6.26;81.09;99646.72;5566529;32;33539;-58
2021/12/06 08:36:10;;;;;;;10.90;8.23;;;;;;;6.50;72.73;99649.59;5558743;32;34515;-58
2021/12/06 08:39:12;;;;;;;11.10;8.55;;;;;;;6.42;72.25;99655.44;5567967;32;33873;-58
2021/12/06 08:42:15;;;;;;;11.15;8.57;;;;;;;6.52;72.32;99654.62;5564843;32;34265;-57
2021/12/06 08:45:17;;;;;;;11.77;8.88;;;;;;;6.46;79.35;99661.84;5560087;32;33879;-58
2021/12/06 08:48:24;;;;;;;11.12;8.05;;;;;;;6.78;81.45;99652.69;5566861;32;33658;-58
2021/12/06 08:51:34;;;;;;;11.32;8.88;;;;;;;6.65;71.78;99664.72;5566343;32;33630;-58
2021/12/06 08:54:36;;;;;;;11.73;9.35;;;;;;;6.52;72.71;99658.13;5567945;32;33177;-58
2021/12/06 08:57:39;;;;;;;14.57;10.35;;;;;;;6.51;75.42;99664.47;5563718;32;33744;-57
2021/12/06 09:00:41;;;;;;;20.55;15.27;;;;;;;6.52;77.26;99666.09;5567966;32;33561;-58
2021/12/06 09:03:46;;;;;;;22.13;15.50;;;;;;;6.45;74.60;99670.88;5567771;32;33672;-58
2021/12/06 09:06:51;;;;;;;21.98;16.02;;;;;;;6.57;82.07;99668.72;5567962;32;33604;-58
2021/12/06 09:09:56;;;;;;;20.92;15.07;;;;;;;6.65;74.59;99663.91;5550623;32;33709;-58
2021/12/06 09:12:58;;;;;;;20.60;13.32;;;;;;;6.63;74.04;99669.53;5550974;32;33571;-58
2021/12/06 09:16:04;;;;;;;21.42;14.43;;;;;;;6.63;73.33;99663.41;5563772;32;34328;-58
2021/12/06 09:19:08;;;;;;;21.50;15.93;;;;;;;6.76;74.20;99655.63;5548109;32;34267;-58
2021/12/06 09:22:11;;;;;;;16.15;11.43;;;;;;;6.72;74.06;99649.25;5549706;32;34214;-57
2021/12/06 09:25:15;;;;;;;12.90;9.30;;;;;;;6.71;72.08;99642.31;5559778;32;33669;-57
2021/12/06 09:28:18;;;;;;;12.10;9.07;;;;;;;6.59;72.84;99641.84;5561265;32;33721;-57
2021/12/06 09:31:21;;;;;;;13.05;9.77;;;;;;;6.33;72.16;99639.25;5561347;32;34338;-58
2021/12/06 09:34:24;;;;;;;14.13;10.00;;;;;;;6.17;73.80;99632.38;5564814;32;33720;-58
2021/12/06 09:37:27;;;;;;;13.18;9.90;;;;;;;6.66;81.18;99638.91;5567718;32;33459;-58
2021/12/06 09:40:30;;;;;;;17.35;12.00;;;;;;;6.19;73.92;99630.25;5568136;32;33697;-58
2021/12/06 09:43:37;;;;;;;16.37;11.52;;;;;;;6.15;73.58;99623.84;5565185;32;33155;-57
2021/12/06 09:46:42;;;;;;;15.48;10.73;;;;;;;6.22;73.73;99634.19;5569554;32;33647;-57
2021/12/06 09:49:44;;;;;;;15.85;10.85;;;;;;;6.51;72.15;99647.72;5566365;32;33884;-57
2021/12/06 09:52:46;;;;;;;15.07;10.90;;;;;;;6.21;72.09;99629.97;5569672;32;33676;-57
2021/12/06 09:55:53;;;;;;;16.58;11.68;;;;;;;6.33;73.73;99631.25;5557907;32;33696;-57
2021/12/06 09:58:57;;;;;;;16.20;11.77;;;;;;;6.49;73.32;99628.53;5569613;32;34440;-58
2021/12/06 10:02:04;;;;;;;13.95;9.98;;;;;;;6.49;73.34;99628.53;5569060;32;33187;-58
2021/12/06 10:05:08;;;;;;;15.88;11.48;;;;;;;6.45;73.80;99619.50;5569080;32;34387;-58
2021/12/06 10:08:11;;;;;;;17.20;12.57;;;;;;;6.61;73.91;99614.94;5553035;32;33432;-57
2021/12/06 10:11:21;;;;;;;16.00;11.52;;;;;;;6.54;72.90;99610.69;5561288;32;34367;-57
2021/12/06 10:14:23;;;;;;;15.30;11.43;;;;;;;6.42;73.02;99599.53;5565614;32;34205;-58
2021/12/06 10:17:27;;;;;;;13.15;10.30;;;;;;;6.76;78.10;99588.25;5567592;32;33610;-58
2021/12/06 10:20:30;;;;;;;14.73;10.45;;;;;;;6.81;72.34;99593.53;5568146;32;34200;-58
2021/12/06 10:23:37;;;;;;;15.15;10.93;;;;;;;7.06;74.62;99587.28;5565310;32;34480;-57
2021/12/06 10:26:40;;;;;;;14.35;11.55;;;;;;;7.16;70.64;99595.22;5568106;32;33761;-58
2021/12/06 10:29:53;;;;;;;15.70;12.60;;;;;;;7.20;73.33;99598.91;5561834;32;33648;-58
2021/12/06 10:33:08;;;;;;;16.60;12.43;;;;;;;6.88;73.82;99602.00;5562800;32;33734;-58
2021/12/06 10:36:15;;;;;;;15.90;12.30;;;;;;;7.17;73.54;99607.44;5562961;32;33626;-58
2021/12/06 10:39:18;;;;;;;14.60;11.35;;;;;;;7.02;79.45;99607.56;5560428;32;33775;-58
2021/12/06 10:42:40;;;;;;;14.00;10.80;;;;;;;6.85;72.20;99618.53;5564763;32;34341;-57
2021/12/06 10:45:49;;;;;;;13.62;11.55;;;;;;;6.65;71.04;99632.75;5563277;32;33671;-57
2021/12/06 10:48:57;;;;;;;14.63;11.02;;;;;;;6.43;70.96;99654.41;5567018;32;33752;-58
2021/12/06 10:52:00;;;;;;;16.58;11.85;;;;;;;6.63;74.07;99674.06;5564401;32;33723;-57
2021/12/06 10:55:03;;;;;;;15.10;11.23;;;;;;;6.41;70.81;99677.03;5563072;32;33843;-58
2021/12/06 10:58:13;;;;;;;15.45;11.63;;;;;;;6.49;80.82;99679.13;5562616;32;33854;-58
2021/12/06 11:01:19;;;;;;;15.13;11.75;;;;;;;7.21;78.50;99683.13;5559931;31;33827;-58
2021/12/06 11:04:26;;;;;;;14.70;11.20;;;;;;;7.51;78.18;99682.16;5555909;32;34239;-58
2021/12/06 11:07:32;;;;;;;14.68;11.05;;;;;;;7.56;73.05;99684.00;5559917;32;33730;-58
2021/12/06 11:10:45;;;;;;;16.65;11.50;;;;;;;7.70;72.62;99676.16;5561563;32;33690;-58
2021/12/06 11:13:54;;;;;;;13.65;10.52;;;;;;;7.56;67.98;99673.34;5559450;32;33592;-57
2021/12/06 11:17:02;;;;;;;13.75;10.10;;;;;;;6.69;71.35;99684.44;5559464;32;34215;-58
2021/12/06 11:20:20;;;;;;;13.35;10.43;;;;;;;6.62;69.98;99689.22;5568961;32;33623;-58
2021/12/06 11:23:22;;;;;;;14.02;10.30;;;;;;;6.38;70.89;99699.66;5562022;32;33873;-57
2021/12/06 11:26:25;;;;;;;13.85;10.20;;;;;;;6.40;70.42;99710.84;5550578;32;33594;-58
2021/12/06 11:29:35;;;;;;;15.45;10.48;;;;;;;6.56;72.62;99704.44;5564992;32;32275;-58
2021/12/06 11:32:48;;;;;;;15.35;10.90;;;;;;;6.77;71.07;99701.72;5564571;32;34080;-58
2021/12/06 11:35:50;;;;;;;12.27;9.95;;;;;;;6.99;69.16;99710.16;5568099;32;34337;-57
2021/12/06 11:39:04;;;;;;;14.45;10.95;;;;;;;6.63;68.38;99706.03;5568074;32;34487;-57
2021/12/06 11:42:06;;;;;;;13.02;10.00;;;;;;;6.50;71.12;99704.72;5557574;32;33468;-57
2021/12/06 11:45:08;;;;;;;12.98;10.50;;;;;;;6.40;70.46;99707.41;5549106;32;33781;-58
2021/12/06 11:48:13;;;;;;;12.95;10.27;;;;;;;6.15;71.10;99700.22;5559544;32;34352;-58
2021/12/06 11:51:18;;;;;;;13.57;10.98;;;;;;;6.08;72.04;99698.63;5556914;32;33720;-57
2021/12/06 11:54:21;;;;;;;14.10;10.57;;;;;;;6.20;71.77;99710.87;5565263;32;33712;-57
2021/12/06 11:57:30;;;;;;;14.95;10.80;;;;;;;6.32;70.55;99716.69;5565224;32;33815;-58
2021/12/06 12:00:32;;;;;;;17.40;10.70;;;;;;;6.11;71.22;99711.41;5562333;32;34311;-57
2021/12/06 12:03:36;;;;;;;12.35;9.95;;;;;;;6.31;71.63;99712.44;5566019;32;33711;-57
2021/12/06 12:06:45;;;;;;;13.70;9.77;;;;;;;6.37;77.17;99714.03;5563273;32;33698;-58
2021/12/06 12:09:47;;;;;;;11.88;9.20;;;;;;;6.26;71.84;99720.47;5565534;32;34365;-57
2021/12/06 12:12:53;;;;;;;12.85;9.38;;;;;;;6.25;71.90;99710.84;5564280;32;34409;-57
2021/12/06 12:16:00;;;;;;;12.20;9.35;;;;;;;6.34;72.17;99698.59;5566065;32;33795;-57
2021/12/06 12:19:02;;;;;;;13.20;10.07;;;;;;;6.54;70.61;99698.56;5553979;32;34442;-57
2021/12/06 12:22:05;;;;;;;12.35;8.80;;;;;;;6.43;71.94;99690.88;5559541;32;33817;-58
2021/12/06 12:25:15;;;;;;;10.75;8.35;;;;;;;6.38;70.30;99675.69;5564703;32;34256;-57
2021/12/06 12:28:22;;;;;;;10.13;8.05;;;;;;;6.52;69.91;99682.06;5562742;32;33709;-57
2021/12/06 12:31:26;;;;;;;11.10;9.20;;;;;;;6.43;68.77;99683.69;5567686;32;33643;-57
2021/12/06 12:34:32;;;;;;;11.18;8.48;;;;;;;6.48;70.58;99675.69;5568488;32;33660;-58
2021/12/06 12:37:37;;;;;;;12.05;8.25;;;;;;;6.54;69.52;99676.47;5567779;32;33725;-57
2021/12/06 12:40:44;;;;;;;12.40;8.13;;;;;;;6.52;69.17;99676.75;5558678;32;33681;-57
2021/12/06 12:43:48;;;;;;;;;;;;;;;6.78;68.95;99666.78;5562330;32;33722;-57
2021/12/06 12:46:53;;;;;;;9.73;7.95;;;;;;;6.58;68.23;99674.84;5558729;32;34637;-57
2021/12/06 12:50:16;;;;;;;9.38;6.82;;;;;;;6.35;68.74;99682.34;5546979;32;34830;-58
2021/12/06 12:53:20;;;;;;;10.13;7.53;;;;;;;6.35;78.84;99678.91;5557758;32;33754;-58
2021/12/06 12:56:30;;;;;;;10.57;7.50;;;;;;;6.40;68.43;99691.41;5567564;32;34255;-57
2021/12/06 12:59:49;;;;;;;11.98;7.37;;;;;;;6.29;67.54;99693.28;5553553;32;33668;-57
2021/12/06 13:02:51;;;;;;;10.70;7.20;;;;;;;6.22;69.15;99695.41;5551730;32;33666;-57
2021/12/06 13:06:19;;;;;;;10.95;7.70;;;;;;;6.12;68.48;99704.19;5560642;32;33601;-57
2021/12/06 13:09:26;;;;;;;10.13;7.07;;;;;;;6.04;71.10;99708.22;5567313;32;33749;-57
2021/12/06 13:12:31;;;;;;;10.38;7.30;;;;;;;6.09;69.46;99708.22;5561586;32;33710;-57
2021/12/06 13:19:12;;;;;;;12.73;7.70;;;;;;;6.07;69.41;99707.69;5568262;32;34431;-57
2021/12/06 13:22:19;;;;;;;10.95;8.23;;;;;;;6.01;70.89;99714.06;5567203;32;33800;-57
2021/12/06 13:25:27;;;;;;;11.90;8.30;;;;;;;6.18;73.42;99713.00;5569691;32;34355;-57
2021/12/06 13:28:29;;;;;;;12.55;9.38;;;;;;;6.03;70.62;99727.13;5563182;32;33620;-57
2021/12/06 13:31:32;;;;;;;11.52;8.70;;;;;;;5.88;71.91;99725.19;5568361;32;34013;-57
2021/12/06 13:34:34;;;;;;;12.02;8.98;;;;;;;5.88;71.40;99730.50;5570188;32;33718;-57
2021/12/06 13:37:39;;;;;;;10.88;8.50;;;;;;;5.86;71.73;99722.81;5568297;32;33761;-57
2021/12/06 13:41:03;;;;;;;12.00;8.63;;;;;;;5.99;71.24;99720.69;5569387;32;33811;-57
2021/12/06 13:44:08;;;;;;;10.45;8.20;;;;;;;5.89;70.35;99716.97;5560188;32;33690;-58
2021/12/06 13:47:16;;;;;;;12.18;7.20;;;;;;;6.16;69.60;99726.59;5564547;32;33865;-58
2021/12/06 13:50:18;;;;;;;10.65;7.15;;;;;;;6.07;69.81;99728.16;5565110;32;32384;-57
2021/12/06 13:53:39;;;;;;;11.65;7.70;;;;;;;5.97;71.21;99731.63;5564095;32;34241;-57
2021/12/06 13:56:55;;;;;;;10.10;7.18;;;;;;;6.02;70.47;99731.59;5569534;32;33576;-58
2021/12/06 14:00:01;;;;;;;10.18;7.28;;;;;;;5.96;70.01;99738.00;5559266;32;33615;-57
2021/12/06 14:03:18;;;;;;;12.23;7.93;;;;;;;6.01;70.22;99746.00;5561831;32;34810;-57
2021/12/06 14:06:23;;;;;;;10.55;7.05;;;;;;;5.73;70.99;99751.75;5569311;32;34420;-57
2021/12/06 14:09:29;;;;;;;9.68;7.55;;;;;;;5.73;71.39;99759.75;5562828;32;33596;-57
2021/12/06 14:12:33;;;;;;;11.15;7.90;;;;;;;5.62;71.89;99765.03;5569245;32;33667;-57
2021/12/06 14:15:47;;;;;;;14.02;8.40;;;;;;;5.84;71.93;99756.84;5569059;32;33469;-57
2021/12/06 14:18:51;;;;;;;11.95;7.87;;;;;;;5.82;71.35;99764.28;5567149;32;33789;-58
2021/12/06 14:21:56;;;;;;;12.18;8.10;;;;;;;5.79;71.94;99767.47;5568248;32;33931;-57
2021/12/06 14:25:00;;;;;;;13.70;8.27;;;;;;;5.79;72.50;99766.66;5568806;32;33657;-58
2021/12/06 14:28:09;;;;;;;12.18;8.02;;;;;;;5.84;70.84;99777.34;5567997;32;33589;-58
2021/12/06 14:31:12;;;;;;;10.75;7.20;;;;;;;6.01;70.71;99769.12;5566786;32;33638;-57
2021/12/06 14:34:15;;;;;;;13.05;7.95;;;;;;;6.05;69.82;99773.66;5568655;32;34350;-57
2021/12/06 14:37:20;;;;;;;11.50;7.30;;;;;;;6.15;72.49;99774.72;5568017;32;33592;-58
2021/12/06 14:40:24;;;;;;;13.18;7.45;;;;;;;5.98;68.44;99785.63;5568641;32;33984;-57
2021/12/06 14:43:27;;;;;;;11.68;7.45;;;;;;;5.71;69.60;99777.84;5563862;32;33535;-57
2021/12/06 14:46:29;;;;;;;10.40;7.10;;;;;;;5.99;69.46;99771.25;5567609;32;33240;-57
2021/12/06 14:49:33;;;;;;;9.88;7.60;;;;;;;6.06;69.33;99788.56;5567596;32;34387;-57
2021/12/06 14:52:40;;;;;;;8.43;6.80;;;;;;;5.94;67.99;99781.91;5568730;32;34626;-57
2021/12/06 14:55:55;;;;;;;10.25;7.22;;;;;;;5.90;69.33;99781.59;5567209;32;33723;-57
2021/12/06 14:59:23;;;;;;;11.15;7.20;;;;;;;5.64;69.33;99789.50;5567959;32;34510;-57
2021/12/06 15:02:33;;;;;;;11.52;6.97;;;;;;;5.73;68.24;99800.44;5568597;32;34435;-57
2021/12/06 15:05:41;;;;;;;11.60;7.60;;;;;;;5.74;67.55;99790.63;5553583;32;34411;-57
2021/12/06 15:08:51;;;;;;;11.10;7.20;;;;;;;5.75;67.49;99790.34;5548782;32;34371;-57
2021/12/06 15:11:57;;;;;;;11.38;7.15;;;;;;;5.70;67.61;99784.22;5548999;32;33727;-57
2021/12/06 15:14:59;;;;;;;11.60;7.97;;;;;;;5.79;70.48;99788.75;5561222;32;31535;-57
2021/12/06 15:18:04;;;;;;;10.80;7.50;;;;;;;5.81;67.14;99796.47;5568756;32;33703;-57
2021/12/06 15:21:09;;;;;;;12.35;8.07;;;;;;;5.82;67.34;99798.84;5560325;32;33588;-57
2021/12/06 15:24:13;;;;;;;10.30;7.32;;;;;;;6.26;68.27;99802.97;5549190;32;33699;-57
2021/12/06 15:27:16;;;;;;;11.15;7.65;;;;;;;6.04;68.12;99803.19;5548825;32;33654;-57
2021/12/06 15:30:21;;;;;;;13.20;8.45;;;;;;;6.10;65.93;99799.50;5551454;32;33868;-57
2021/12/06 15:33:24;;;;;;;12.32;8.50;;;;;;;6.27;68.38;99802.69;5566124;32;33694;-57
2021/12/06 15:36:28;;;;;;;12.73;8.90;;;;;;;5.95;65.53;99805.56;5567188;32;33703;-57
2021/12/06 15:39:31;;;;;;;13.95;9.82;;;;;;;5.99;66.70;99800.53;5568395;32;33842;-57
2021/12/06 15:42:33;;;;;;;14.18;10.23;;;;;;;5.97;67.64;99803.47;5567537;32;33677;-57
2021/12/06 15:45:36;;;;;;;14.48;9.98;;;;;;;6.09;65.76;99806.69;5568829;32;34542;-57
2021/12/06 15:48:41;;;;;;;15.35;10.55;;;;;;;6.19;65.65;99800.56;5568349;32;34853;-57
2021/12/06 15:51:48;;;;;;;17.15;11.50;;;;;;;5.99;66.88;99800.53;5568881;32;34440;-57
2021/12/06 15:55:07;;;;;;;16.50;11.20;;;;;;;5.73;66.64;99812.94;5565007;32;33772;-57
2021/12/06 15:58:16;;;;;;;16.95;11.30;;;;;;;5.71;67.49;99813.19;5568786;32;33857;-57
2021/12/06 16:01:19;;;;;;;17.48;12.25;;;;;;;5.59;67.41;99812.63;5569000;32;33233;-57
2021/12/06 16:04:21;;;;;;;17.90;11.85;;;;;;;5.51;66.38;99815.78;5551608;32;34366;-57
2021/12/06 16:07:32;;;;;;;18.02;11.93;;;;;;;5.31;66.62;99819.16;5560238;32;33748;-57
2021/12/06 16:10:38;;;;;;;14.80;11.05;;;;;;;5.41;66.35;99827.19;5568354;32;33628;-57
2021/12/06 16:13:44;;;;;;;19.35;13.10;;;;;;;5.12;66.74;99832.87;5555024;32;33725;-57
2021/12/06 16:16:49;;;;;;;17.73;11.27;;;;;;;5.33;68.73;99835.63;5549409;32;33692;-57
2021/12/06 16:19:53;;;;;;;19.48;12.48;;;;;;;5.27;66.99;99852.62;5549413;32;33250;-57
2021/12/06 16:22:56;;;;;;;18.52;11.43;;;;;;;5.25;67.33;99844.12;5558441;32;33695;-57
2021/12/06 16:26:00;;;;;;;19.70;12.20;;;;;;;5.00;66.48;99858.84;5556082;32;33628;-57
2021/12/06 16:29:09;;;;;;;16.85;11.52;;;;;;;4.91;66.72;99855.87;5549161;32;33768;-57
2021/12/06 16:32:14;;;;;;;20.20;11.77;;;;;;;5.12;68.04;99869.28;5551963;32;33758;-57
2021/12/06 16:35:17;;;;;;;17.15;11.32;;;;;;;5.18;68.76;99862.94;5557525;32;34420;-57
2021/12/06 16:38:31;;;;;;;15.93;11.05;;;;;;;5.40;71.95;99873.44;5567926;32;33704;-57
2021/12/06 16:41:35;;;;;;;16.50;11.38;;;;;;;5.44;65.92;99868.41;5568188;32;33274;-57
2021/12/06 16:44:40;;;;;;;16.77;11.15;;;;;;;5.26;65.51;99886.37;5567662;32;33719;-57
2021/12/06 16:47:46;;;;;;;18.02;11.38;;;;;;;5.48;71.13;99880.13;5567794;32;34321;-57
2021/12/06 16:50:50;;;;;;;16.83;11.05;;;;;;;5.58;65.09;99886.28;5560392;32;33336;-58
